createdAt,value
2023-04-07T00:00:09.045Z,5.14
2023-04-07T00:03:26.268Z,5.14
2023-04-07T00:06:37.704Z,5.10
2023-04-07T00:09:42.285Z,5.13
2023-04-07T00:12:45.120Z,5.09
2023-04-07T00:15:50.622Z,5.07
2023-04-07T00:18:52.353Z,5.09
2023-04-07T00:21:56.957Z,5.10
2023-04-07T00:25:01.710Z,5.10
2023-04-07T00:28:06.475Z,5.09
2023-04-07T00:31:11.427Z,5.12
2023-04-07T00:34:37.436Z,5.13
2023-04-07T00:37:43.006Z,5.11
2023-04-07T00:40:46.018Z,5.13
2023-04-07T00:43:50.116Z,5.12
2023-04-07T00:46:52.165Z,5.14
2023-04-07T00:49:54.541Z,5.26
2023-04-07T00:52:59.697Z,5.36
2023-04-07T00:56:01.686Z,5.49
2023-04-07T00:59:18.970Z,5.58
2023-04-07T01:02:55.738Z,5.68
2023-04-07T01:06:09.577Z,5.76
2023-04-07T01:13:46.904Z,5.90
2023-04-07T01:17:23.206Z,5.95
2023-04-07T01:20:41.916Z,5.99
2023-04-07T01:24:24.672Z,5.99
2023-04-07T01:28:03.679Z,5.98
2023-04-07T01:31:07.101Z,5.98
2023-04-07T01:34:22.730Z,5.99
2023-04-07T01:37:34.509Z,5.98
2023-04-07T01:40:41.975Z,5.98
2023-04-07T01:47:08.900Z,5.98
2023-04-07T01:50:13.258Z,6.00
2023-04-07T01:53:19.153Z,5.98
2023-04-07T01:56:23.491Z,5.98
2023-04-07T01:59:34.822Z,5.96
2023-04-07T02:02:47.218Z,5.94
2023-04-07T02:05:54.557Z,5.90
2023-04-07T02:09:20.517Z,5.84
2023-04-07T02:12:33.796Z,5.81
2023-04-07T02:15:53.695Z,5.81
2023-04-07T02:19:05.886Z,5.79
2023-04-07T02:22:10.425Z,5.77
2023-04-07T02:25:32.852Z,5.76
2023-04-07T02:28:39.598Z,5.73
2023-04-07T02:31:42.958Z,5.69
2023-04-07T02:38:04.861Z,5.63
2023-04-07T02:41:16.181Z,5.60
2023-04-07T02:44:21.766Z,5.54
2023-04-07T02:47:26.019Z,5.57
2023-04-07T02:50:31.496Z,5.58
2023-04-07T02:53:33.267Z,5.57
2023-04-07T02:56:38.090Z,5.54
2023-04-07T02:59:43.343Z,5.55
2023-04-07T03:02:48.358Z,5.54
2023-04-07T03:09:21.410Z,5.55
2023-04-07T03:12:35.884Z,5.53
2023-04-07T03:15:40.897Z,5.54
2023-04-07T03:18:46.169Z,5.53
2023-04-07T03:21:50.582Z,5.53
2023-04-07T03:24:55.685Z,5.49
2023-04-07T03:28:04.035Z,5.49
2023-04-07T03:31:12.969Z,5.45
2023-04-07T03:34:16.570Z,5.40
2023-04-07T03:37:29.031Z,5.39
2023-04-07T03:40:32.999Z,5.37
2023-04-07T03:43:44.592Z,5.41
2023-04-07T03:46:51.393Z,5.40
2023-04-07T03:50:00.200Z,5.40
2023-04-07T03:53:07.786Z,5.38
2023-04-07T03:56:20.621Z,5.39
2023-04-07T03:59:28.328Z,5.40
2023-04-07T04:02:43.343Z,5.37
2023-04-07T04:05:52.604Z,5.31
2023-04-07T04:09:04.227Z,5.31
2023-04-07T04:12:10.142Z,5.30
2023-04-07T04:15:29.975Z,5.30
2023-04-07T04:18:37.272Z,5.29
2023-04-07T04:21:44.228Z,5.27
2023-04-07T04:24:47.422Z,5.27
2023-04-07T04:27:52.362Z,5.25
2023-04-07T04:31:02.876Z,5.20
2023-04-07T04:34:28.461Z,5.21
2023-04-07T04:37:35.207Z,5.18
2023-04-07T04:41:01.708Z,5.16
2023-04-07T04:44:25.015Z,5.17
2023-04-07T04:51:13.290Z,5.18
2023-04-07T04:54:25.283Z,5.17
2023-04-07T04:57:32.219Z,5.15
2023-04-07T05:00:38.214Z,5.14
2023-04-07T05:07:04.621Z,5.06
2023-04-07T05:10:11.989Z,5.05
2023-04-07T05:13:21.869Z,5.01
2023-04-07T05:16:27.947Z,4.99
2023-04-07T05:19:40.364Z,4.92
2023-04-07T05:22:51.192Z,4.96
2023-04-07T05:26:00.287Z,4.94
2023-04-07T05:29:04.666Z,4.97
2023-04-07T05:32:08.184Z,4.99
2023-04-07T05:35:13.833Z,4.96
2023-04-07T05:38:27.051Z,4.98
2023-04-07T05:41:46.234Z,4.99
2023-04-07T05:45:09.712Z,4.99
2023-04-07T05:48:18.212Z,5.00
2023-04-07T05:51:23.976Z,4.99
2023-04-07T05:54:32.493Z,4.99
2023-04-07T05:57:43.912Z,5.01
2023-04-07T06:04:07.760Z,5.14
2023-04-07T06:07:33.674Z,5.19
2023-04-07T06:10:39.696Z,5.21
2023-04-07T06:13:42.350Z,5.23
2023-04-07T06:16:45.203Z,5.25
2023-04-07T06:19:51.289Z,5.28
2023-04-07T06:26:13.080Z,5.32
2023-04-07T06:29:24.424Z,5.37
2023-04-07T06:32:42.486Z,5.41
2023-04-07T06:35:45.947Z,5.42
2023-04-07T06:38:51.105Z,5.44
2023-04-07T06:42:03.399Z,5.44
2023-04-07T06:45:13.811Z,5.48
2023-04-07T06:48:19.427Z,5.47
2023-04-07T06:51:22.412Z,5.45
2023-04-07T06:54:26.806Z,5.55
2023-04-07T06:57:30.924Z,5.59
2023-04-07T07:00:36.854Z,5.60
2023-04-07T07:03:41.818Z,5.60
2023-04-07T07:06:44.972Z,5.55
2023-04-07T07:09:48.996Z,5.53
2023-04-07T07:13:00.693Z,5.50
2023-04-07T07:16:06.651Z,5.55
2023-04-07T07:19:12.276Z,5.58
2023-04-07T07:22:16.073Z,5.60
2023-04-07T07:25:24.147Z,5.66
2023-04-07T07:28:36.712Z,5.68
2023-04-07T07:31:43.577Z,5.77
2023-04-07T07:34:47.744Z,5.81
2023-04-07T07:37:52.030Z,5.88
2023-04-07T07:40:56.397Z,5.96
2023-04-07T07:44:01.355Z,5.98
2023-04-07T07:47:12.172Z,6.01
2023-04-07T07:50:16.103Z,6.05
2023-04-07T07:53:23.504Z,6.16
2023-04-07T07:56:29.956Z,6.25
2023-04-07T07:59:33.793Z,6.31
2023-04-07T08:02:48.131Z,6.36
2023-04-07T08:05:56.404Z,6.38
2023-04-07T08:09:01.357Z,6.46
2023-04-07T08:12:06.399Z,6.54
2023-04-07T08:15:13.583Z,6.64
2023-04-07T08:18:27.477Z,6.75
2023-04-07T08:21:39.152Z,6.91
2023-04-07T08:24:44.707Z,7.07
2023-04-07T08:27:51.538Z,7.19
2023-04-07T08:31:05.008Z,7.25
2023-04-07T08:34:19.028Z,7.30
2023-04-07T08:37:24.314Z,7.39
2023-04-07T08:40:27.765Z,7.48
2023-04-07T08:43:43.291Z,7.55
2023-04-07T08:46:58.041Z,7.64
2023-04-07T08:50:13.025Z,7.77
2023-04-07T08:53:24.929Z,7.88
2023-04-07T08:56:29.892Z,7.96
2023-04-07T08:59:36.227Z,8.00
2023-04-07T09:02:43.642Z,8.06
2023-04-07T09:05:52.000Z,8.17
2023-04-07T09:09:03.807Z,8.24
2023-04-07T09:12:16.000Z,8.29
2023-04-07T09:15:24.698Z,8.33
2023-04-07T09:18:28.691Z,8.36
2023-04-07T09:21:54.466Z,8.38
2023-04-07T09:25:17.097Z,8.45
2023-04-07T09:29:03.323Z,8.53
2023-04-07T09:32:16.270Z,8.56
2023-04-07T09:35:25.933Z,8.61
2023-04-07T09:38:40.881Z,8.71
2023-04-07T09:41:48.240Z,8.78
2023-04-07T09:44:54.953Z,8.96
2023-04-07T09:48:00.248Z,9.10
2023-04-07T09:51:21.940Z,9.28
2023-04-07T09:54:44.877Z,9.39
2023-04-07T09:57:49.296Z,9.52
2023-04-07T10:01:04.648Z,9.60
2023-04-07T10:04:09.064Z,9.64
2023-04-07T10:07:13.734Z,9.69
2023-04-07T10:10:19.019Z,9.75
2023-04-07T10:13:24.258Z,9.85
2023-04-07T10:16:30.833Z,9.91
2023-04-07T10:19:42.701Z,9.99
2023-04-07T10:22:55.244Z,10.12
2023-04-07T10:26:09.985Z,10.22
2023-04-07T10:29:16.500Z,10.32
2023-04-07T10:32:27.700Z,10.39
2023-04-07T10:36:09.198Z,10.45
2023-04-07T10:39:26.002Z,10.54
2023-04-07T10:42:44.080Z,10.58
2023-04-07T10:45:49.348Z,10.54
2023-04-07T10:49:14.723Z,10.49
2023-04-07T10:52:33.152Z,10.49
2023-04-07T10:56:00.519Z,10.59
2023-04-07T10:59:23.007Z,10.66
2023-04-07T11:02:35.277Z,10.74
2023-04-07T11:05:43.478Z,10.85
2023-04-07T11:08:53.540Z,10.90
2023-04-07T11:12:04.963Z,11.00
2023-04-07T11:15:28.431Z,11.04
2023-04-07T11:18:39.530Z,11.00
2023-04-07T11:21:44.493Z,10.96
2023-04-07T11:28:14.618Z,11.01
2023-04-07T11:31:50.652Z,11.08
2023-04-07T11:34:55.971Z,11.18
2023-04-07T11:38:06.469Z,11.14
2023-04-07T11:41:30.406Z,11.14
2023-04-07T11:44:36.360Z,11.11
2023-04-07T11:47:49.521Z,11.14
2023-04-07T11:50:57.676Z,11.14
2023-04-07T11:54:14.034Z,11.10
2023-04-07T11:57:30.483Z,11.08
2023-04-07T12:00:35.220Z,11.18
2023-04-07T12:03:40.494Z,11.26
2023-04-07T12:06:45.998Z,11.31
2023-04-07T12:09:49.417Z,11.35
2023-04-07T12:12:56.318Z,11.37
2023-04-07T12:16:10.962Z,11.31
2023-04-07T12:19:17.374Z,11.34
2023-04-07T12:22:32.373Z,11.42
2023-04-07T12:25:46.454Z,11.45
2023-04-07T12:28:52.119Z,11.47
2023-04-07T12:31:55.668Z,11.56
2023-04-07T12:35:00.128Z,11.61
2023-04-07T12:38:03.538Z,11.61
2023-04-07T12:41:11.066Z,11.62
2023-04-07T12:44:15.591Z,11.64
2023-04-07T12:47:26.855Z,11.60
2023-04-07T12:50:33.296Z,11.56
2023-04-07T12:53:44.849Z,11.53
2023-04-07T12:56:48.522Z,11.55
2023-04-07T13:00:00.898Z,11.59
2023-04-07T13:03:05.478Z,11.53
2023-04-07T13:06:11.782Z,11.46
2023-04-07T13:09:20.050Z,11.47
2023-04-07T13:12:26.309Z,11.49
2023-04-07T13:15:38.722Z,11.50
2023-04-07T13:18:45.240Z,11.44
2023-04-07T13:21:49.444Z,11.42
2023-04-07T13:24:52.198Z,11.41
2023-04-07T13:28:05.221Z,11.41
2023-04-07T13:31:10.243Z,11.38
2023-04-07T13:34:16.460Z,11.40
2023-04-07T13:37:28.317Z,11.41
2023-04-07T13:40:33.069Z,11.44
2023-04-07T13:43:38.288Z,11.45
2023-04-07T13:46:44.305Z,11.53
2023-04-07T13:49:56.996Z,11.56
2023-04-07T13:53:08.792Z,11.57
2023-04-07T13:56:15.392Z,11.54
2023-04-07T13:59:30.958Z,11.53
2023-04-07T14:09:10.820Z,11.38
2023-04-07T14:12:22.051Z,11.40
2023-04-07T14:15:28.590Z,11.36
2023-04-07T14:18:34.117Z,11.32
2023-04-07T14:21:39.877Z,11.32
2023-04-07T14:28:08.899Z,11.22
2023-04-07T14:31:21.628Z,11.26
2023-04-07T14:34:25.968Z,11.23
2023-04-07T14:37:40.035Z,11.23
2023-04-07T14:40:45.833Z,11.25
2023-04-07T14:43:55.149Z,11.29
2023-04-07T14:47:01.187Z,11.32
2023-04-07T14:50:13.083Z,11.35
2023-04-07T14:53:25.306Z,11.37
2023-04-07T14:56:31.646Z,11.33
2023-04-07T14:59:35.174Z,11.28
2023-04-07T15:02:48.576Z,11.32
2023-04-07T15:05:51.354Z,11.28
2023-04-07T15:08:54.164Z,11.27
2023-04-07T15:11:59.428Z,11.25
2023-04-07T15:15:06.216Z,11.21
2023-04-07T15:18:10.789Z,11.17
2023-04-07T15:21:19.089Z,11.12
2023-04-07T15:24:24.633Z,11.06
2023-04-07T15:27:38.210Z,11.01
2023-04-07T15:30:41.360Z,10.95
2023-04-07T15:37:14.886Z,10.90
2023-04-07T15:40:20.261Z,10.89
2023-04-07T15:43:25.234Z,10.83
2023-04-07T15:46:36.292Z,10.78
2023-04-07T15:49:39.473Z,10.72
2023-04-07T15:52:46.666Z,10.68
2023-04-07T15:55:50.696Z,10.64
2023-04-07T15:58:57.322Z,10.63
2023-04-07T16:02:03.884Z,10.59
2023-04-07T16:05:17.350Z,10.56
2023-04-07T16:08:20.535Z,10.52
2023-04-07T16:11:22.865Z,10.52
2023-04-07T16:14:31.923Z,10.50
2023-04-07T16:17:38.700Z,10.50
2023-04-07T16:20:48.586Z,10.51
2023-04-07T16:23:51.162Z,10.49
2023-04-07T16:27:00.676Z,10.47
2023-04-07T16:30:10.164Z,10.45
2023-04-07T16:33:15.599Z,10.42
2023-04-07T16:36:21.360Z,10.42
2023-04-07T16:39:32.625Z,10.37
2023-04-07T16:42:39.523Z,10.36
2023-04-07T16:45:44.853Z,10.33
2023-04-07T16:48:50.387Z,10.28
2023-04-07T16:51:55.140Z,10.22
2023-04-07T16:55:03.237Z,10.25
2023-04-07T16:58:08.302Z,10.23
2023-04-07T17:01:14.400Z,10.21
2023-04-07T17:04:17.189Z,10.18
2023-04-07T17:07:22.695Z,10.13
2023-04-07T17:10:27.575Z,10.07
2023-04-07T17:13:38.339Z,10.06
2023-04-07T17:16:43.741Z,10.04
2023-04-07T17:19:47.712Z,10.00
2023-04-07T17:22:52.115Z,9.98
2023-04-07T17:25:59.486Z,9.96
2023-04-07T17:29:11.563Z,9.93
2023-04-07T17:32:24.999Z,9.90
2023-04-07T17:35:30.839Z,9.84
2023-04-07T17:38:42.718Z,9.85
2023-04-07T17:41:55.339Z,9.80
2023-04-07T17:45:00.633Z,9.79
2023-04-07T17:48:06.711Z,9.76
2023-04-07T17:51:14.305Z,9.72
2023-04-07T17:54:19.357Z,9.71
2023-04-07T17:57:25.514Z,9.66
2023-04-07T18:00:31.032Z,9.66
2023-04-07T18:03:36.044Z,9.68
2023-04-07T18:06:49.404Z,9.66
2023-04-07T18:13:20.105Z,9.57
2023-04-07T18:16:31.342Z,9.56
2023-04-07T18:19:44.218Z,9.53
2023-04-07T18:22:52.427Z,9.52
2023-04-07T18:25:57.920Z,9.51
2023-04-07T18:29:04.242Z,9.47
2023-04-07T18:32:09.849Z,9.46
2023-04-07T18:35:15.624Z,9.42
2023-04-07T18:38:20.984Z,9.38
2023-04-07T18:41:25.903Z,9.35
2023-04-07T18:44:41.027Z,9.30
2023-04-07T18:47:46.925Z,9.31
2023-04-07T18:51:05.703Z,9.26
2023-04-07T18:54:18.036Z,9.23
2023-04-07T18:57:24.256Z,9.18
2023-04-07T19:00:27.422Z,9.16
2023-04-07T19:03:30.742Z,9.14
2023-04-07T19:06:40.167Z,9.12
2023-04-07T19:09:45.912Z,9.09
2023-04-07T19:12:51.539Z,9.02
2023-04-07T19:16:02.962Z,8.99
2023-04-07T19:19:08.780Z,8.98
2023-04-07T19:22:13.370Z,8.93
2023-04-07T19:25:18.559Z,8.92
2023-04-07T19:28:23.372Z,8.88
2023-04-07T19:31:27.553Z,8.81
2023-04-07T19:34:30.578Z,8.78
2023-04-07T19:37:39.839Z,8.76
2023-04-07T19:40:45.396Z,8.71
2023-04-07T19:47:14.508Z,8.67
2023-04-07T19:50:20.541Z,8.64
2023-04-07T19:53:25.363Z,8.61
2023-04-07T19:56:30.719Z,8.58
2023-04-07T19:59:36.772Z,8.55
2023-04-07T20:02:40.404Z,8.52
2023-04-07T20:05:46.493Z,8.50
2023-04-07T20:08:56.733Z,8.47
2023-04-07T20:12:02.175Z,8.46
2023-04-07T20:15:11.927Z,8.42
2023-04-07T20:18:21.149Z,8.41
2023-04-07T20:24:51.082Z,8.38
2023-04-07T20:28:08.055Z,8.38
2023-04-07T20:31:11.788Z,8.37
2023-04-07T20:34:16.120Z,8.36
2023-04-07T20:37:29.353Z,8.36
2023-04-07T20:40:37.610Z,8.35
2023-04-07T20:47:21.911Z,8.32
2023-04-07T20:50:37.857Z,8.30
2023-04-07T20:53:41.970Z,8.28
2023-04-07T20:56:47.534Z,8.23
2023-04-07T20:59:58.313Z,8.20
2023-04-07T21:03:12.389Z,8.17
2023-04-07T21:06:19.291Z,8.13
2023-04-07T21:09:23.584Z,8.10
2023-04-07T21:12:26.964Z,8.07
2023-04-07T21:15:39.698Z,8.02
2023-04-07T21:18:50.926Z,7.98
2023-04-07T21:21:57.154Z,7.93
2023-04-07T21:25:03.176Z,7.89
2023-04-07T21:28:10.014Z,7.81
2023-04-07T21:31:37.202Z,7.75
2023-04-07T21:34:46.642Z,7.69
2023-04-07T21:37:56.459Z,7.62
2023-04-07T21:41:08.287Z,7.66
2023-04-07T21:44:13.378Z,7.66
2023-04-07T21:47:29.084Z,7.65
2023-04-07T21:50:34.366Z,7.65
2023-04-07T21:53:41.114Z,7.64
2023-04-07T21:56:45.771Z,7.63
2023-04-07T21:59:47.993Z,7.61
2023-04-07T22:06:19.656Z,7.52
2023-04-07T22:09:24.818Z,7.43
2023-04-07T22:12:28.516Z,7.38
2023-04-07T22:15:33.575Z,7.29
2023-04-07T22:18:38.413Z,7.17
2023-04-07T22:21:43.058Z,7.09
2023-04-07T22:28:16.683Z,6.89
2023-04-07T22:31:22.439Z,6.80
2023-04-07T22:34:28.380Z,6.73
2023-04-07T22:37:41.631Z,6.70
2023-04-07T22:40:49.638Z,6.62
2023-04-07T22:47:21.238Z,6.48
2023-04-07T22:50:27.064Z,6.39
2023-04-07T22:53:30.192Z,6.32
2023-04-07T22:56:34.872Z,6.22
2023-04-07T22:59:50.107Z,6.14
2023-04-07T23:06:13.254Z,5.97
2023-04-07T23:09:18.812Z,5.88
2023-04-07T23:12:29.761Z,5.82
2023-04-07T23:15:40.116Z,5.70
2023-04-07T23:18:46.000Z,5.65
2023-04-07T23:21:50.968Z,5.58
2023-04-07T23:24:53.259Z,5.49
2023-04-07T23:27:54.912Z,5.40
2023-04-07T23:31:00.373Z,5.34
2023-04-07T23:34:05.308Z,5.28
2023-04-07T23:37:14.261Z,5.22
2023-04-07T23:40:19.615Z,5.16
2023-04-07T23:43:24.001Z,5.05
2023-04-07T23:46:29.339Z,5.03
2023-04-07T23:49:32.942Z,4.97
2023-04-07T23:52:43.813Z,4.90
2023-04-07T23:55:51.226Z,4.85
2023-04-07T23:59:04.167Z,4.79
